sensor_id;sensor_type;location;lat;lon;timestamp;P1;durP1;ratioP1;P2;durP2;ratioP2
63038;SDS011;49125;48.812;9.206;2022-10-31T00:01:09;12.90;;;4.60;;
63038;SDS011;49125;48.812;9.206;2022-10-31T00:03:57;9.57;;;4.87;;
63038;SDS011;49125;48.812;9.206;2022-10-31T00:06:23;8.13;;;4.80;;
63038;SDS011;49125;48.812;9.206;2022-10-31T00:08:53;7.90;;;5.23;;
63038;SDS011;49125;48.812;9.206;2022-10-31T00:11:25;6.03;;;4.27;;
63038;SDS011;49125;48.812;9.206;2022-10-31T00:13:51;9.80;;;5.33;;
63038;SDS011;49125;48.812;9.206;2022-10-31T00:16:21;9.77;;;5.00;;
63038;SDS011;49125;48.812;9.206;2022-10-31T00:18:49;8.50;;;5.20;;
63038;SDS011;49125;48.812;9.206;2022-10-31T00:21:15;7.70;;;4.97;;
63038;SDS011;49125;48.812;9.206;2022-10-31T00:23:41;7.23;;;4.23;;
63038;SDS011;49125;48.812;9.206;2022-10-31T00:26:06;7.53;;;5.80;;
63038;SDS011;49125;48.812;9.206;2022-10-31T00:28:32;9.30;;;5.00;;
63038;SDS011;49125;48.812;9.206;2022-10-31T00:31:01;9.43;;;5.40;;
63038;SDS011;49125;48.812;9.206;2022-10-31T00:33:29;10.50;;;5.57;;
63038;SDS011;49125;48.812;9.206;2022-10-31T00:35:55;7.80;;;5.30;;
63038;SDS011;49125;48.812;9.206;2022-10-31T00:38:21;10.67;;;5.73;;
63038;SDS011;49125;48.812;9.206;2022-10-31T00:40:47;10.03;;;5.77;;
63038;SDS011;49125;48.812;9.206;2022-10-31T00:43:12;12.67;;;5.73;;
63038;SDS011;49125;48.812;9.206;2022-10-31T00:45:38;8.30;;;5.90;;
63038;SDS011;49125;48.812;9.206;2022-10-31T00:48:04;8.37;;;5.40;;
63038;SDS011;49125;48.812;9.206;2022-10-31T00:50:29;9.30;;;6.07;;
63038;SDS011;49125;48.812;9.206;2022-10-31T00:52:55;8.90;;;5.67;;
63038;SDS011;49125;48.812;9.206;2022-10-31T00:55:21;9.10;;;5.43;;
63038;SDS011;49125;48.812;9.206;2022-10-31T00:57:47;7.77;;;5.93;;
63038;SDS011;49125;48.812;9.206;2022-10-31T01:00:13;13.30;;;6.10;;
63038;SDS011;49125;48.812;9.206;2022-10-31T01:02:39;10.37;;;6.10;;
63038;SDS011;49125;48.812;9.206;2022-10-31T01:05:04;11.70;;;5.57;;
63038;SDS011;49125;48.812;9.206;2022-10-31T01:07:30;7.77;;;5.50;;
63038;SDS011;49125;48.812;9.206;2022-10-31T01:09:56;11.77;;;5.47;;
63038;SDS011;49125;48.812;9.206;2022-10-31T01:12:21;9.60;;;5.60;;
63038;SDS011;49125;48.812;9.206;2022-10-31T01:14:47;10.53;;;6.27;;
63038;SDS011;49125;48.812;9.206;2022-10-31T01:17:13;8.80;;;5.37;;
63038;SDS011;49125;48.812;9.206;2022-10-31T01:19:39;9.57;;;5.40;;
63038;SDS011;49125;48.812;9.206;2022-10-31T01:22:05;8.77;;;5.47;;
63038;SDS011;49125;48.812;9.206;2022-10-31T01:24:30;6.90;;;5.10;;
63038;SDS011;49125;48.812;9.206;2022-10-31T01:26:56;7.50;;;5.40;;
63038;SDS011;49125;48.812;9.206;2022-10-31T01:29:22;9.57;;;5.90;;
63038;SDS011;49125;48.812;9.206;2022-10-31T01:31:47;9.90;;;6.07;;
63038;SDS011;49125;48.812;9.206;2022-10-31T01:34:14;7.83;;;4.93;;
63038;SDS011;49125;48.812;9.206;2022-10-31T01:36:41;8.03;;;5.63;;
63038;SDS011;49125;48.812;9.206;2022-10-31T01:39:09;9.63;;;5.70;;
63038;SDS011;49125;48.812;9.206;2022-10-31T01:41:37;9.67;;;5.70;;
63038;SDS011;49125;48.812;9.206;2022-10-31T01:47:01;8.67;;;4.93;;
63038;SDS011;49125;48.812;9.206;2022-10-31T01:51:55;13.70;;;5.23;;
63038;SDS011;49125;48.812;9.206;2022-10-31T01:54:27;10.63;;;5.70;;
63038;SDS011;49125;48.812;9.206;2022-10-31T01:56:55;8.33;;;5.03;;
63038;SDS011;49125;48.812;9.206;2022-10-31T01:59:23;10.47;;;5.63;;
63038;SDS011;49125;48.812;9.206;2022-10-31T02:01:50;6.50;;;4.80;;
63038;SDS011;49125;48.812;9.206;2022-10-31T02:04:18;7.30;;;5.10;;
63038;SDS011;49125;48.812;9.206;2022-10-31T02:06:46;10.07;;;5.30;;
63038;SDS011;49125;48.812;9.206;2022-10-31T02:09:25;10.80;;;5.27;;
63038;SDS011;49125;48.812;9.206;2022-10-31T02:11:52;7.27;;;5.10;;
63038;SDS011;49125;48.812;9.206;2022-10-31T02:14:22;9.27;;;5.23;;
63038;SDS011;49125;48.812;9.206;2022-10-31T02:16:49;6.93;;;4.43;;
63038;SDS011;49125;48.812;9.206;2022-10-31T02:19:17;8.17;;;5.50;;
63038;SDS011;49125;48.812;9.206;2022-10-31T02:21:53;9.27;;;5.20;;
63038;SDS011;49125;48.812;9.206;2022-10-31T02:37:38;8.03;;;4.87;;
63038;SDS011;49125;48.812;9.206;2022-10-31T02:40:34;7.50;;;4.97;;
63038;SDS011;49125;48.812;9.206;2022-10-31T02:43:16;10.67;;;5.40;;
63038;SDS011;49125;48.812;9.206;2022-10-31T02:45:47;8.33;;;4.90;;
63038;SDS011;49125;48.812;9.206;2022-10-31T02:48:24;6.13;;;4.73;;
63038;SDS011;49125;48.812;9.206;2022-10-31T02:50:56;7.00;;;4.97;;
63038;SDS011;49125;48.812;9.206;2022-10-31T02:53:25;6.40;;;4.23;;
63038;SDS011;49125;48.812;9.206;2022-10-31T02:55:57;9.63;;;5.00;;
63038;SDS011;49125;48.812;9.206;2022-10-31T02:58:31;5.80;;;4.13;;
63038;SDS011;49125;48.812;9.206;2022-10-31T03:06:45;6.33;;;4.40;;
63038;SDS011;49125;48.812;9.206;2022-10-31T03:09:32;9.50;;;4.70;;
63038;SDS011;49125;48.812;9.206;2022-10-31T03:18:01;8.30;;;4.70;;
63038;SDS011;49125;48.812;9.206;2022-10-31T03:20:36;8.03;;;4.90;;
63038;SDS011;49125;48.812;9.206;2022-10-31T03:23:25;5.83;;;4.47;;
63038;SDS011;49125;48.812;9.206;2022-10-31T03:25:53;8.60;;;5.00;;
63038;SDS011;49125;48.812;9.206;2022-10-31T03:28:22;8.00;;;5.27;;
63038;SDS011;49125;48.812;9.206;2022-10-31T03:30:51;7.60;;;5.60;;
63038;SDS011;49125;48.812;9.206;2022-10-31T03:33:20;9.77;;;5.17;;
63038;SDS011;49125;48.812;9.206;2022-10-31T03:35:51;8.23;;;4.63;;
63038;SDS011;49125;48.812;9.206;2022-10-31T03:38:20;6.60;;;5.03;;
63038;SDS011;49125;48.812;9.206;2022-10-31T03:40:47;6.37;;;4.60;;
63038;SDS011;49125;48.812;9.206;2022-10-31T03:43:16;6.60;;;4.87;;
63038;SDS011;49125;48.812;9.206;2022-10-31T03:45:53;7.57;;;4.70;;
63038;SDS011;49125;48.812;9.206;2022-10-31T03:48:19;7.53;;;5.13;;
63038;SDS011;49125;48.812;9.206;2022-10-31T03:53:41;6.67;;;4.60;;
63038;SDS011;49125;48.812;9.206;2022-10-31T03:56:19;6.80;;;4.53;;
63038;SDS011;49125;48.812;9.206;2022-10-31T04:01:25;6.43;;;4.47;;
63038;SDS011;49125;48.812;9.206;2022-10-31T04:03:53;6.67;;;4.33;;
63038;SDS011;49125;48.812;9.206;2022-10-31T04:06:20;7.17;;;4.57;;
63038;SDS011;49125;48.812;9.206;2022-10-31T04:08:48;9.83;;;4.50;;
63038;SDS011;49125;48.812;9.206;2022-10-31T04:11:18;7.60;;;4.80;;
63038;SDS011;49125;48.812;9.206;2022-10-31T04:13:46;9.10;;;4.67;;
63038;SDS011;49125;48.812;9.206;2022-10-31T04:16:14;6.77;;;4.77;;
63038;SDS011;49125;48.812;9.206;2022-10-31T04:18:40;7.60;;;4.43;;
63038;SDS011;49125;48.812;9.206;2022-10-31T04:21:06;10.33;;;4.30;;
63038;SDS011;49125;48.812;9.206;2022-10-31T04:23:33;6.77;;;4.70;;
63038;SDS011;49125;48.812;9.206;2022-10-31T04:26:00;7.97;;;4.37;;
63038;SDS011;49125;48.812;9.206;2022-10-31T04:28:26;6.43;;;4.50;;
63038;SDS011;49125;48.812;9.206;2022-10-31T04:30:52;8.47;;;4.70;;
63038;SDS011;49125;48.812;9.206;2022-10-31T04:33:18;5.93;;;4.60;;
63038;SDS011;49125;48.812;9.206;2022-10-31T04:35:45;7.00;;;4.50;;
63038;SDS011;49125;48.812;9.206;2022-10-31T04:38:11;7.47;;;4.87;;
63038;SDS011;49125;48.812;9.206;2022-10-31T04:40:37;7.83;;;4.70;;
63038;SDS011;49125;48.812;9.206;2022-10-31T04:43:02;11.77;;;5.27;;
63038;SDS011;49125;48.812;9.206;2022-10-31T04:45:28;7.43;;;4.53;;
63038;SDS011;49125;48.812;9.206;2022-10-31T04:47:53;6.87;;;4.87;;
63038;SDS011;49125;48.812;9.206;2022-10-31T04:50:19;7.40;;;4.50;;
63038;SDS011;49125;48.812;9.206;2022-10-31T04:52:45;7.53;;;4.30;;
63038;SDS011;49125;48.812;9.206;2022-10-31T04:55:11;6.97;;;5.00;;
63038;SDS011;49125;48.812;9.206;2022-10-31T04:57:44;6.23;;;4.50;;
63038;SDS011;49125;48.812;9.206;2022-10-31T05:00:12;8.00;;;4.80;;
63038;SDS011;49125;48.812;9.206;2022-10-31T05:02:46;8.57;;;5.13;;
63038;SDS011;49125;48.812;9.206;2022-10-31T05:05:16;9.27;;;5.63;;
63038;SDS011;49125;48.812;9.206;2022-10-31T05:07:44;7.30;;;4.80;;
63038;SDS011;49125;48.812;9.206;2022-10-31T05:10:12;6.73;;;4.80;;
63038;SDS011;49125;48.812;9.206;2022-10-31T05:12:49;10.00;;;4.57;;
63038;SDS011;49125;48.812;9.206;2022-10-31T05:15:20;11.47;;;5.50;;
63038;SDS011;49125;48.812;9.206;2022-10-31T05:17:47;6.07;;;4.40;;
63038;SDS011;49125;48.812;9.206;2022-10-31T05:20:14;8.50;;;4.87;;
63038;SDS011;49125;48.812;9.206;2022-10-31T05:22:48;6.10;;;4.27;;
63038;SDS011;49125;48.812;9.206;2022-10-31T05:25:15;6.00;;;4.57;;
63038;SDS011;49125;48.812;9.206;2022-10-31T05:27:42;7.23;;;4.20;;
63038;SDS011;49125;48.812;9.206;2022-10-31T05:30:13;9.87;;;5.13;;
63038;SDS011;49125;48.812;9.206;2022-10-31T05:32:41;7.10;;;4.60;;
63038;SDS011;49125;48.812;9.206;2022-10-31T05:35:10;7.50;;;4.43;;
63038;SDS011;49125;48.812;9.206;2022-10-31T05:37:43;7.03;;;4.47;;
63038;SDS011;49125;48.812;9.206;2022-10-31T05:40:10;6.53;;;4.40;;
63038;SDS011;49125;48.812;9.206;2022-10-31T05:42:40;7.20;;;4.73;;
63038;SDS011;49125;48.812;9.206;2022-10-31T05:45:07;6.27;;;4.63;;
63038;SDS011;49125;48.812;9.206;2022-10-31T05:47:38;7.53;;;4.63;;
63038;SDS011;49125;48.812;9.206;2022-10-31T05:50:04;7.03;;;4.43;;
63038;SDS011;49125;48.812;9.206;2022-10-31T05:52:30;8.80;;;4.50;;
63038;SDS011;49125;48.812;9.206;2022-10-31T05:54:56;8.07;;;4.07;;
63038;SDS011;49125;48.812;9.206;2022-10-31T05:57:22;4.73;;;3.80;;
63038;SDS011;49125;48.812;9.206;2022-10-31T05:59:47;6.23;;;4.43;;
63038;SDS011;49125;48.812;9.206;2022-10-31T06:02:13;8.97;;;4.73;;
63038;SDS011;49125;48.812;9.206;2022-10-31T06:04:38;8.73;;;5.20;;
63038;SDS011;49125;48.812;9.206;2022-10-31T06:07:04;6.83;;;4.70;;
63038;SDS011;49125;48.812;9.206;2022-10-31T06:09:29;9.50;;;4.20;;
63038;SDS011;49125;48.812;9.206;2022-10-31T06:11:55;6.63;;;4.50;;
63038;SDS011;49125;48.812;9.206;2022-10-31T06:14:20;8.47;;;4.90;;
63038;SDS011;49125;48.812;9.206;2022-10-31T06:16:46;5.33;;;4.30;;
63038;SDS011;49125;48.812;9.206;2022-10-31T06:19:11;6.33;;;4.60;;
63038;SDS011;49125;48.812;9.206;2022-10-31T06:21:37;8.87;;;4.17;;
63038;SDS011;49125;48.812;9.206;2022-10-31T06:24:03;6.67;;;4.30;;
63038;SDS011;49125;48.812;9.206;2022-10-31T06:26:28;6.80;;;4.23;;
63038;SDS011;49125;48.812;9.206;2022-10-31T06:28:54;8.03;;;4.03;;
63038;SDS011;49125;48.812;9.206;2022-10-31T06:31:20;9.87;;;4.50;;
63038;SDS011;49125;48.812;9.206;2022-10-31T06:33:45;7.23;;;5.43;;
63038;SDS011;49125;48.812;9.206;2022-10-31T06:36:11;6.93;;;4.50;;
63038;SDS011;49125;48.812;9.206;2022-10-31T06:38:37;8.03;;;4.73;;
63038;SDS011;49125;48.812;9.206;2022-10-31T06:41:03;5.97;;;4.03;;
63038;SDS011;49125;48.812;9.206;2022-10-31T06:43:31;6.80;;;4.37;;
63038;SDS011;49125;48.812;9.206;2022-10-31T06:45:57;7.47;;;4.43;;
63038;SDS011;49125;48.812;9.206;2022-10-31T06:48:26;6.73;;;4.00;;
63038;SDS011;49125;48.812;9.206;2022-10-31T06:50:52;5.90;;;3.90;;
63038;SDS011;49125;48.812;9.206;2022-10-31T06:53:17;4.77;;;3.90;;
63038;SDS011;49125;48.812;9.206;2022-10-31T06:55:43;5.93;;;4.13;;
63038;SDS011;49125;48.812;9.206;2022-10-31T06:58:09;4.50;;;4.00;;
63038;SDS011;49125;48.812;9.206;2022-10-31T07:00:35;8.43;;;4.53;;
63038;SDS011;49125;48.812;9.206;2022-10-31T07:03:05;5.87;;;4.00;;
63038;SDS011;49125;48.812;9.206;2022-10-31T07:05:33;5.77;;;4.13;;
63038;SDS011;49125;48.812;9.206;2022-10-31T07:08:00;5.07;;;3.80;;
63038;SDS011;49125;48.812;9.206;2022-10-31T07:10:29;5.97;;;4.33;;
63038;SDS011;49125;48.812;9.206;2022-10-31T07:12:58;7.40;;;4.37;;
63038;SDS011;49125;48.812;9.206;2022-10-31T07:15:25;5.90;;;3.87;;
63038;SDS011;49125;48.812;9.206;2022-10-31T07:17:52;5.50;;;3.77;;
63038;SDS011;49125;48.812;9.206;2022-10-31T07:20:18;7.93;;;3.70;;
63038;SDS011;49125;48.812;9.206;2022-10-31T07:22:44;4.83;;;4.07;;
63038;SDS011;49125;48.812;9.206;2022-10-31T07:25:09;6.13;;;4.20;;
63038;SDS011;49125;48.812;9.206;2022-10-31T07:27:39;7.00;;;4.40;;
63038;SDS011;49125;48.812;9.206;2022-10-31T07:30:07;5.70;;;3.97;;
63038;SDS011;49125;48.812;9.206;2022-10-31T07:32:40;6.07;;;4.27;;
63038;SDS011;49125;48.812;9.206;2022-10-31T07:35:10;4.63;;;3.70;;
63038;SDS011;49125;48.812;9.206;2022-10-31T07:37:37;8.83;;;3.90;;
63038;SDS011;49125;48.812;9.206;2022-10-31T07:40:03;9.20;;;3.77;;
63038;SDS011;49125;48.812;9.206;2022-10-31T07:42:40;4.90;;;3.30;;
63038;SDS011;49125;48.812;9.206;2022-10-31T07:45:09;6.83;;;3.33;;
63038;SDS011;49125;48.812;9.206;2022-10-31T07:47:39;6.10;;;3.83;;
63038;SDS011;49125;48.812;9.206;2022-10-31T07:50:06;5.23;;;4.10;;
63038;SDS011;49125;48.812;9.206;2022-10-31T07:52:33;8.10;;;4.30;;
63038;SDS011;49125;48.812;9.206;2022-10-31T07:54:59;5.70;;;4.20;;
63038;SDS011;49125;48.812;9.206;2022-10-31T07:57:24;6.17;;;4.33;;
63038;SDS011;49125;48.812;9.206;2022-10-31T07:59:50;5.37;;;4.17;;
63038;SDS011;49125;48.812;9.206;2022-10-31T08:02:15;6.03;;;3.40;;
63038;SDS011;49125;48.812;9.206;2022-10-31T08:04:41;6.10;;;3.50;;
63038;SDS011;49125;48.812;9.206;2022-10-31T08:07:06;7.37;;;3.67;;
63038;SDS011;49125;48.812;9.206;2022-10-31T08:09:32;5.13;;;4.27;;
63038;SDS011;49125;48.812;9.206;2022-10-31T08:11:57;5.97;;;3.73;;
63038;SDS011;49125;48.812;9.206;2022-10-31T08:14:23;6.57;;;3.90;;
63038;SDS011;49125;48.812;9.206;2022-10-31T08:16:48;5.93;;;3.70;;
63038;SDS011;49125;48.812;9.206;2022-10-31T08:19:14;7.83;;;3.83;;
63038;SDS011;49125;48.812;9.206;2022-10-31T08:21:39;4.33;;;3.57;;
63038;SDS011;49125;48.812;9.206;2022-10-31T08:24:05;4.27;;;3.57;;
63038;SDS011;49125;48.812;9.206;2022-10-31T08:26:31;6.03;;;4.17;;
63038;SDS011;49125;48.812;9.206;2022-10-31T08:28:57;6.77;;;4.53;;
63038;SDS011;49125;48.812;9.206;2022-10-31T08:31:23;8.60;;;4.33;;
63038;SDS011;49125;48.812;9.206;2022-10-31T08:33:51;6.17;;;4.00;;
63038;SDS011;49125;48.812;9.206;2022-10-31T08:36:17;5.83;;;4.37;;
63038;SDS011;49125;48.812;9.206;2022-10-31T08:38:43;7.97;;;4.87;;
63038;SDS011;49125;48.812;9.206;2022-10-31T08:41:08;5.33;;;3.73;;
63038;SDS011;49125;48.812;9.206;2022-10-31T08:43:34;7.40;;;4.10;;
63038;SDS011;49125;48.812;9.206;2022-10-31T08:45:59;4.80;;;4.07;;
63038;SDS011;49125;48.812;9.206;2022-10-31T08:48:25;6.70;;;4.43;;
63038;SDS011;49125;48.812;9.206;2022-10-31T08:50:51;6.90;;;4.07;;
63038;SDS011;49125;48.812;9.206;2022-10-31T08:53:17;5.85;;;4.22;;
63038;SDS011;49125;48.812;9.206;2022-10-31T08:55:44;6.75;;;4.18;;
63038;SDS011;49125;48.812;9.206;2022-10-31T08:58:11;7.63;;;4.83;;
63038;SDS011;49125;48.812;9.206;2022-10-31T09:00:38;6.93;;;4.07;;
63038;SDS011;49125;48.812;9.206;2022-10-31T09:03:05;8.70;;;4.47;;
63038;SDS011;49125;48.812;9.206;2022-10-31T09:05:35;7.70;;;4.25;;
63038;SDS011;49125;48.812;9.206;2022-10-31T09:08:01;6.72;;;4.40;;
63038;SDS011;49125;48.812;9.206;2022-10-31T09:10:29;5.22;;;3.90;;
63038;SDS011;49125;48.812;9.206;2022-10-31T09:13:00;8.10;;;5.28;;
63038;SDS011;49125;48.812;9.206;2022-10-31T09:15:31;6.28;;;3.60;;
63038;SDS011;49125;48.812;9.206;2022-10-31T09:18:01;8.43;;;4.57;;
63038;SDS011;49125;48.812;9.206;2022-10-31T09:20:28;6.05;;;4.53;;
63038;SDS011;49125;48.812;9.206;2022-10-31T09:22:58;8.23;;;4.57;;
63038;SDS011;49125;48.812;9.206;2022-10-31T09:25:28;8.88;;;4.47;;
63038;SDS011;49125;48.812;9.206;2022-10-31T09:27:57;6.70;;;4.15;;
63038;SDS011;49125;48.812;9.206;2022-10-31T09:30:29;7.43;;;4.50;;
63038;SDS011;49125;48.812;9.206;2022-10-31T09:32:57;4.47;;;3.80;;
63038;SDS011;49125;48.812;9.206;2022-10-31T09:35:24;7.30;;;4.13;;
63038;SDS011;49125;48.812;9.206;2022-10-31T09:37:56;10.55;;;4.75;;
63038;SDS011;49125;48.812;9.206;2022-10-31T09:40:23;6.43;;;4.20;;
63038;SDS011;49125;48.812;9.206;2022-10-31T09:46:12;8.27;;;5.20;;
63038;SDS011;49125;48.812;9.206;2022-10-31T09:48:58;7.03;;;5.18;;
63038;SDS011;49125;48.812;9.206;2022-10-31T09:51:45;6.43;;;4.97;;
63038;SDS011;49125;48.812;9.206;2022-10-31T09:54:20;10.23;;;4.50;;
63038;SDS011;49125;48.812;9.206;2022-10-31T09:56:55;9.93;;;4.90;;
63038;SDS011;49125;48.812;9.206;2022-10-31T09:59:34;8.40;;;5.20;;
63038;SDS011;49125;48.812;9.206;2022-10-31T10:04:59;6.78;;;3.92;;
63038;SDS011;49125;48.812;9.206;2022-10-31T10:09:57;6.30;;;4.18;;
63038;SDS011;49125;48.812;9.206;2022-10-31T10:29:55;7.30;;;4.50;;
63038;SDS011;49125;48.812;9.206;2022-10-31T10:32:24;5.72;;;4.38;;
63038;SDS011;49125;48.812;9.206;2022-10-31T10:34:54;5.20;;;4.40;;
63038;SDS011;49125;48.812;9.206;2022-10-31T10:37:33;7.78;;;4.60;;
63038;SDS011;49125;48.812;9.206;2022-10-31T10:40:22;10.18;;;4.45;;
63038;SDS011;49125;48.812;9.206;2022-10-31T10:43:32;8.05;;;4.57;;
63038;SDS011;49125;48.812;9.206;2022-10-31T10:51:40;7.57;;;4.68;;
63038;SDS011;49125;48.812;9.206;2022-10-31T10:54:46;5.55;;;4.35;;
63038;SDS011;49125;48.812;9.206;2022-10-31T11:02:47;7.28;;;4.47;;
63038;SDS011;49125;48.812;9.206;2022-10-31T11:05:15;6.55;;;4.68;;
63038;SDS011;49125;48.812;9.206;2022-10-31T11:07:52;6.38;;;4.82;;
63038;SDS011;49125;48.812;9.206;2022-10-31T11:10:18;7.22;;;4.30;;
63038;SDS011;49125;48.812;9.206;2022-10-31T11:12:45;5.70;;;4.15;;
63038;SDS011;49125;48.812;9.206;2022-10-31T11:15:24;7.65;;;4.93;;
63038;SDS011;49125;48.812;9.206;2022-10-31T11:17:51;6.05;;;4.38;;
63038;SDS011;49125;48.812;9.206;2022-10-31T11:22:45;6.05;;;4.35;;
63038;SDS011;49125;48.812;9.206;2022-10-31T11:25:20;6.00;;;4.38;;
63038;SDS011;49125;48.812;9.206;2022-10-31T11:28:00;7.55;;;5.30;;
63038;SDS011;49125;48.812;9.206;2022-10-31T11:30:28;7.70;;;4.80;;
63038;SDS011;49125;48.812;9.206;2022-10-31T11:32:54;7.50;;;4.63;;
63038;SDS011;49125;48.812;9.206;2022-10-31T11:35:21;6.38;;;5.03;;
63038;SDS011;49125;48.812;9.206;2022-10-31T11:37:49;8.25;;;4.82;;
63038;SDS011;49125;48.812;9.206;2022-10-31T11:40:17;6.05;;;4.70;;
63038;SDS011;49125;48.812;9.206;2022-10-31T11:42:45;6.63;;;5.38;;
63038;SDS011;49125;48.812;9.206;2022-10-31T11:45:45;10.57;;;6.05;;
63038;SDS011;49125;48.812;9.206;2022-10-31T11:48:14;9.30;;;5.18;;
63038;SDS011;49125;48.812;9.206;2022-10-31T11:50:41;11.27;;;5.07;;
63038;SDS011;49125;48.812;9.206;2022-10-31T11:53:18;7.88;;;4.88;;
63038;SDS011;49125;48.812;9.206;2022-10-31T11:55:48;7.35;;;4.57;;
63038;SDS011;49125;48.812;9.206;2022-10-31T11:58:54;5.53;;;4.35;;
63038;SDS011;49125;48.812;9.206;2022-10-31T12:01:28;5.25;;;4.75;;
63038;SDS011;49125;48.812;9.206;2022-10-31T12:04:10;7.88;;;4.80;;
63038;SDS011;49125;48.812;9.206;2022-10-31T12:06:41;7.43;;;4.80;;
63038;SDS011;49125;48.812;9.206;2022-10-31T12:17:19;8.93;;;4.75;;
63038;SDS011;49125;48.812;9.206;2022-10-31T12:19:57;7.88;;;4.80;;
63038;SDS011;49125;48.812;9.206;2022-10-31T12:22:32;6.57;;;4.20;;
63038;SDS011;49125;48.812;9.206;2022-10-31T12:30:36;6.35;;;4.07;;
63038;SDS011;49125;48.812;9.206;2022-10-31T12:35:51;5.50;;;4.43;;
63038;SDS011;49125;48.812;9.206;2022-10-31T12:44:06;7.00;;;4.68;;
63038;SDS011;49125;48.812;9.206;2022-10-31T12:47:05;8.15;;;5.28;;
63038;SDS011;49125;48.812;9.206;2022-10-31T12:55:16;8.60;;;4.20;;
63038;SDS011;49125;48.812;9.206;2022-10-31T12:57:56;6.80;;;4.25;;
63038;SDS011;49125;48.812;9.206;2022-10-31T13:00:28;5.68;;;4.05;;
63038;SDS011;49125;48.812;9.206;2022-10-31T13:03:19;10.18;;;4.43;;
63038;SDS011;49125;48.812;9.206;2022-10-31T13:05:46;5.95;;;4.45;;
63038;SDS011;49125;48.812;9.206;2022-10-31T13:10:45;5.70;;;4.30;;
63038;SDS011;49125;48.812;9.206;2022-10-31T13:15:53;7.50;;;4.75;;
63038;SDS011;49125;48.812;9.206;2022-10-31T13:18:27;6.68;;;4.43;;
63038;SDS011;49125;48.812;9.206;2022-10-31T13:20:58;9.32;;;4.30;;
63038;SDS011;49125;48.812;9.206;2022-10-31T13:23:33;8.15;;;4.70;;
63038;SDS011;49125;48.812;9.206;2022-10-31T13:26:05;6.70;;;4.43;;
63038;SDS011;49125;48.812;9.206;2022-10-31T13:28:36;8.98;;;4.85;;
63038;SDS011;49125;48.812;9.206;2022-10-31T13:31:09;6.88;;;4.80;;
63038;SDS011;49125;48.812;9.206;2022-10-31T13:33:37;6.00;;;4.65;;
63038;SDS011;49125;48.812;9.206;2022-10-31T13:38:53;6.93;;;4.38;;
63038;SDS011;49125;48.812;9.206;2022-10-31T13:44:13;6.20;;;4.57;;
63038;SDS011;49125;48.812;9.206;2022-10-31T13:46:50;9.82;;;5.22;;
63038;SDS011;49125;48.812;9.206;2022-10-31T13:54:37;9.98;;;5.63;;
63038;SDS011;49125;48.812;9.206;2022-10-31T13:57:16;6.95;;;5.55;;
63038;SDS011;49125;48.812;9.206;2022-10-31T13:59:51;7.43;;;5.68;;
63038;SDS011;49125;48.812;9.206;2022-10-31T14:02:43;8.25;;;5.15;;
63038;SDS011;49125;48.812;9.206;2022-10-31T14:05:44;11.02;;;5.40;;
63038;SDS011;49125;48.812;9.206;2022-10-31T14:08:03;12.63;;;5.40;;
63038;SDS011;49125;48.812;9.206;2022-10-31T14:10:38;7.70;;;5.10;;
63038;SDS011;49125;48.812;9.206;2022-10-31T14:13:23;6.03;;;4.80;;
63038;SDS011;49125;48.812;9.206;2022-10-31T14:15:58;8.43;;;4.57;;
63038;SDS011;49125;48.812;9.206;2022-10-31T14:18:38;6.95;;;5.22;;
63038;SDS011;49125;48.812;9.206;2022-10-31T14:23:48;9.02;;;5.47;;
63038;SDS011;49125;48.812;9.206;2022-10-31T14:28:47;8.57;;;4.85;;
63038;SDS011;49125;48.812;9.206;2022-10-31T14:34:06;9.23;;;4.88;;
63038;SDS011;49125;48.812;9.206;2022-10-31T14:39:55;7.18;;;5.15;;
63038;SDS011;49125;48.812;9.206;2022-10-31T14:45:54;10.80;;;4.82;;
63038;SDS011;49125;48.812;9.206;2022-10-31T14:51:15;9.45;;;4.80;;
63038;SDS011;49125;48.812;9.206;2022-10-31T14:53:45;8.65;;;5.45;;
63038;SDS011;49125;48.812;9.206;2022-10-31T14:56:20;7.57;;;4.20;;
63038;SDS011;49125;48.812;9.206;2022-10-31T14:58:55;6.55;;;5.03;;
63038;SDS011;49125;48.812;9.206;2022-10-31T15:01:30;9.70;;;5.05;;
63038;SDS011;49125;48.812;9.206;2022-10-31T15:04:15;8.82;;;4.82;;
63038;SDS011;49125;48.812;9.206;2022-10-31T15:06:50;8.85;;;5.10;;
63038;SDS011;49125;48.812;9.206;2022-10-31T15:09:28;8.88;;;4.90;;
63038;SDS011;49125;48.812;9.206;2022-10-31T15:11:55;7.50;;;4.65;;
63038;SDS011;49125;48.812;9.206;2022-10-31T15:14:39;7.15;;;4.80;;
63038;SDS011;49125;48.812;9.206;2022-10-31T15:17:05;8.25;;;4.82;;
63038;SDS011;49125;48.812;9.206;2022-10-31T15:19:30;6.20;;;4.93;;
63038;SDS011;49125;48.812;9.206;2022-10-31T15:21:59;7.93;;;5.07;;
63038;SDS011;49125;48.812;9.206;2022-10-31T15:24:28;6.53;;;4.50;;
63038;SDS011;49125;48.812;9.206;2022-10-31T15:27:01;10.35;;;5.35;;
63038;SDS011;49125;48.812;9.206;2022-10-31T15:29:27;7.60;;;5.30;;
63038;SDS011;49125;48.812;9.206;2022-10-31T15:31:58;10.55;;;6.60;;
63038;SDS011;49125;48.812;9.206;2022-10-31T15:34:31;16.73;;;8.43;;
63038;SDS011;49125;48.812;9.206;2022-10-31T15:37:03;11.48;;;8.00;;
63038;SDS011;49125;48.812;9.206;2022-10-31T15:39:29;16.13;;;8.25;;
63038;SDS011;49125;48.812;9.206;2022-10-31T15:41:56;10.48;;;7.47;;
63038;SDS011;49125;48.812;9.206;2022-10-31T15:44:24;12.57;;;8.75;;
63038;SDS011;49125;48.812;9.206;2022-10-31T15:46:56;11.13;;;7.80;;
63038;SDS011;49125;48.812;9.206;2022-10-31T15:51:53;13.95;;;8.68;;
63038;SDS011;49125;48.812;9.206;2022-10-31T15:54:19;19.23;;;8.95;;
63038;SDS011;49125;48.812;9.206;2022-10-31T15:56:45;12.90;;;7.05;;
63038;SDS011;49125;48.812;9.206;2022-10-31T15:59:11;11.10;;;7.28;;
63038;SDS011;49125;48.812;9.206;2022-10-31T16:01:55;9.93;;;7.18;;
63038;SDS011;49125;48.812;9.206;2022-10-31T16:04:25;12.95;;;7.88;;
63038;SDS011;49125;48.812;9.206;2022-10-31T16:06:58;11.10;;;6.95;;
63038;SDS011;49125;48.812;9.206;2022-10-31T16:09:48;12.45;;;7.20;;
63038;SDS011;49125;48.812;9.206;2022-10-31T16:12:15;17.23;;;6.60;;
63038;SDS011;49125;48.812;9.206;2022-10-31T16:14:41;11.27;;;7.20;;
63038;SDS011;49125;48.812;9.206;2022-10-31T16:17:10;13.07;;;6.80;;
63038;SDS011;49125;48.812;9.206;2022-10-31T16:19:42;14.07;;;6.82;;
63038;SDS011;49125;48.812;9.206;2022-10-31T16:22:19;9.38;;;6.45;;
63038;SDS011;49125;48.812;9.206;2022-10-31T16:24:52;11.85;;;7.07;;
63038;SDS011;49125;48.812;9.206;2022-10-31T16:27:19;9.77;;;6.60;;
63038;SDS011;49125;48.812;9.206;2022-10-31T16:29:50;11.35;;;7.30;;
63038;SDS011;49125;48.812;9.206;2022-10-31T16:35:01;12.80;;;7.10;;
63038;SDS011;49125;48.812;9.206;2022-10-31T16:37:42;9.18;;;6.25;;
63038;SDS011;49125;48.812;9.206;2022-10-31T16:40:11;9.73;;;6.93;;
63038;SDS011;49125;48.812;9.206;2022-10-31T16:42:38;14.57;;;9.07;;
63038;SDS011;49125;48.812;9.206;2022-10-31T16:45:05;18.20;;;11.75;;
63038;SDS011;49125;48.812;9.206;2022-10-31T16:47:31;15.18;;;10.07;;
63038;SDS011;49125;48.812;9.206;2022-10-31T16:49:57;20.65;;;11.48;;
63038;SDS011;49125;48.812;9.206;2022-10-31T16:52:25;15.63;;;11.18;;
63038;SDS011;49125;48.812;9.206;2022-10-31T16:54:50;22.30;;;12.93;;
63038;SDS011;49125;48.812;9.206;2022-10-31T16:57:17;13.93;;;9.87;;
63038;SDS011;49125;48.812;9.206;2022-10-31T16:59:51;18.13;;;11.37;;
63038;SDS011;49125;48.812;9.206;2022-10-31T17:02:18;16.43;;;11.53;;
63038;SDS011;49125;48.812;9.206;2022-10-31T17:04:44;20.80;;;13.47;;
63038;SDS011;49125;48.812;9.206;2022-10-31T17:07:10;20.03;;;13.37;;
63038;SDS011;49125;48.812;9.206;2022-10-31T17:09:35;18.10;;;14.13;;
63038;SDS011;49125;48.812;9.206;2022-10-31T17:12:01;20.23;;;15.53;;
63038;SDS011;49125;48.812;9.206;2022-10-31T17:14:27;19.93;;;15.07;;
63038;SDS011;49125;48.812;9.206;2022-10-31T17:16:53;17.33;;;12.20;;
63038;SDS011;49125;48.812;9.206;2022-10-31T17:19:18;14.00;;;10.93;;
63038;SDS011;49125;48.812;9.206;2022-10-31T17:21:44;16.60;;;9.77;;
63038;SDS011;49125;48.812;9.206;2022-10-31T17:24:13;11.30;;;8.03;;